Flowell, Utah
Current Conditions -  °F | °C
As of 8:35 PM on Monday 20 Oct 2014 (Local Time) from KDTA Reporting Station
Scattered Clouds Scattered Clouds  
Wind Chill: 64°   Ceiling: Unl
Heat Index: 64°   Visibility: 10mi
Dew Point: 36°   Wind: 10mph
Humidity: 36%   Direction: 140°SE
Pressure: 29.94"   Gusts: NA
Location:  38.898°N, 112.594°W
Report Text: KDTA 210235Z AUTO 14009KT 10SM SCT120 18/02 A2994 RMK AO1 T01750022
Loading
Personal Weather Stations






























Interactive Weather Map
Tropical Storm Tracking
New forecast layout! Learn more

10-Day Weather Forecast

Advertisements
Track Severe Weather on mobile